createdAt,value
2023-04-05T00:00:10.056Z,98737.19
2023-04-05T00:03:34.826Z,98731.19
2023-04-05T00:06:40.007Z,98730.90
2023-04-05T00:09:43.541Z,98722.69
2023-04-05T00:12:46.473Z,98722.14
2023-04-05T00:15:50.045Z,98719.41
2023-04-05T00:18:53.025Z,98714.55
2023-04-05T00:21:56.323Z,98709.27
2023-04-05T00:24:59.664Z,98705.31
2023-04-05T00:28:02.864Z,98702.42
2023-04-05T00:31:06.174Z,98703.09
2023-04-05T00:34:10.374Z,98698.21
2023-04-05T00:37:13.416Z,98694.96
2023-04-05T00:40:16.661Z,98695.59
2023-04-05T00:43:19.689Z,98694.11
2023-04-05T00:46:23.097Z,98695.22
2023-04-05T00:49:26.263Z,98696.39
2023-04-05T00:52:30.570Z,98694.89
2023-04-05T00:55:34.163Z,98699.45
2023-04-05T00:58:37.242Z,98692.91
2023-04-05T01:01:41.250Z,98689.14
2023-04-05T01:04:51.728Z,98686.91
2023-04-05T01:08:04.947Z,98685.61
2023-04-05T01:11:09.373Z,98681.83
2023-04-05T01:14:12.417Z,98680.98
2023-04-05T01:17:16.565Z,98673.81
2023-04-05T01:20:21.994Z,98670.35
2023-04-05T01:23:38.454Z,98668.00
2023-04-05T01:27:16.460Z,98664.21
2023-04-05T01:30:30.916Z,98664.48
2023-04-05T01:33:33.855Z,98663.58
2023-04-05T01:36:56.736Z,98659.50
2023-04-05T01:40:00.640Z,98659.30
2023-04-05T01:43:12.497Z,98657.13
2023-04-05T01:46:15.598Z,98653.63
2023-04-05T01:49:19.017Z,98653.02
2023-04-05T01:52:22.013Z,98650.46
2023-04-05T01:55:25.805Z,98649.48
2023-04-05T01:58:29.376Z,98651.20
2023-04-05T02:01:32.874Z,98649.04
2023-04-05T02:04:35.949Z,98650.48
2023-04-05T02:07:38.937Z,98648.89
2023-04-05T02:10:42.848Z,98650.96
2023-04-05T02:13:46.134Z,98644.48
2023-04-05T02:16:49.198Z,98646.41
2023-04-05T02:19:53.197Z,98645.41
2023-04-05T02:22:56.924Z,98647.50
2023-04-05T02:26:00.611Z,98645.19
2023-04-05T02:29:03.623Z,98646.50
2023-04-05T02:32:06.682Z,98644.79
2023-04-05T02:35:10.771Z,98639.18
2023-04-05T02:38:13.805Z,98636.74
2023-04-05T02:41:16.813Z,98636.97
2023-04-05T02:44:19.916Z,98633.05
2023-04-05T02:47:22.891Z,98631.41
2023-04-05T02:50:31.595Z,98630.47
2023-04-05T02:53:35.433Z,98626.80
2023-04-05T02:56:41.016Z,98628.19
2023-04-05T02:59:47.740Z,98625.95
2023-04-05T03:02:51.035Z,98626.27
2023-04-05T03:06:09.928Z,98625.27
2023-04-05T03:09:18.739Z,98625.84
2023-04-05T03:12:22.428Z,98622.42
2023-04-05T03:15:25.686Z,98622.23
2023-04-05T03:18:29.742Z,98620.94
2023-04-05T03:21:37.816Z,98620.80
2023-04-05T03:24:46.645Z,98621.02
2023-04-05T03:27:52.915Z,98616.89
2023-04-05T03:30:57.162Z,98619.38
2023-04-05T03:34:00.227Z,98622.30
2023-04-05T03:37:06.012Z,98618.58
2023-04-05T03:40:19.866Z,98625.29
2023-04-05T03:43:23.951Z,98621.09
2023-04-05T03:46:27.069Z,98616.16
2023-04-05T03:49:30.061Z,98616.13
2023-04-05T03:52:32.977Z,98612.69
2023-04-05T03:55:36.334Z,98613.33
2023-04-05T03:58:40.475Z,98612.08
2023-04-05T04:01:44.874Z,98614.09
2023-04-05T04:04:48.132Z,98611.29
2023-04-05T04:07:51.270Z,98606.55
2023-04-05T04:10:54.860Z,98604.20
2023-04-05T04:14:00.743Z,98607.57
2023-04-05T04:17:33.353Z,98609.42
2023-04-05T04:20:52.420Z,98609.04
2023-04-05T04:24:10.327Z,98613.30
2023-04-05T04:27:26.210Z,98618.42
2023-04-05T04:30:49.471Z,98624.09
2023-04-05T04:34:14.669Z,98618.34
2023-04-05T04:37:31.265Z,98612.09
2023-04-05T04:40:54.463Z,98617.55
2023-04-05T04:44:08.794Z,98615.27
2023-04-05T04:47:21.918Z,98615.00
2023-04-05T04:50:40.985Z,98613.29
2023-04-05T04:53:43.932Z,98618.23
2023-04-05T04:56:47.633Z,98623.04
2023-04-05T04:59:50.718Z,98624.19
2023-04-05T05:02:53.859Z,98622.33
2023-04-05T05:05:57.144Z,98620.86
2023-04-05T05:09:06.491Z,98622.38
2023-04-05T05:12:13.869Z,98623.77
2023-04-05T05:15:16.864Z,98625.42
2023-04-05T05:18:19.949Z,98626.73
2023-04-05T05:21:22.985Z,98630.43
2023-04-05T05:24:34.952Z,98639.42
2023-04-05T05:27:37.963Z,98638.22
2023-04-05T05:30:41.103Z,98639.02
2023-04-05T05:33:47.877Z,98637.19
2023-04-05T05:36:52.443Z,98638.22
2023-04-05T05:39:55.485Z,98638.91
2023-04-05T05:42:58.539Z,98635.57
2023-04-05T05:46:02.818Z,98636.73
2023-04-05T05:49:06.243Z,98636.52
2023-04-05T05:52:09.225Z,98637.33
2023-04-05T05:55:12.348Z,98636.17
2023-04-05T05:58:15.993Z,98636.92
2023-04-05T06:01:23.142Z,98638.55
2023-04-05T06:04:26.414Z,98640.91
2023-04-05T06:07:29.850Z,98638.84
2023-04-05T06:10:33.112Z,98640.80
2023-04-05T06:13:37.898Z,98636.02
2023-04-05T06:16:41.117Z,98637.25
2023-04-05T06:19:44.191Z,98631.98
2023-04-05T06:22:47.174Z,98634.77
2023-04-05T06:25:50.137Z,98632.92
2023-04-05T06:28:54.335Z,98637.27
2023-04-05T06:31:57.374Z,98633.52
2023-04-05T06:35:03.627Z,98630.81
2023-04-05T06:38:06.858Z,98635.41
2023-04-05T06:41:10.198Z,98636.71
2023-04-05T06:44:13.230Z,98637.06
2023-04-05T06:47:16.590Z,98637.46
2023-04-05T06:50:19.675Z,98632.30
2023-04-05T06:53:22.723Z,98636.66
2023-04-05T06:56:25.834Z,98632.17
2023-04-05T06:59:30.047Z,98629.26
2023-04-05T07:02:35.333Z,98629.84
2023-04-05T07:05:39.354Z,98628.70
2023-04-05T07:08:44.939Z,98629.95
2023-04-05T07:11:50.989Z,98628.98
2023-04-05T07:14:54.138Z,98632.96
2023-04-05T07:17:57.300Z,98631.78
2023-04-05T07:21:00.413Z,98631.64
2023-04-05T07:24:03.840Z,98632.86
2023-04-05T07:27:07.447Z,98637.59
2023-04-05T07:30:10.994Z,98636.40
2023-04-05T07:33:14.146Z,98638.45
2023-04-05T07:36:23.348Z,98635.81
2023-04-05T07:39:26.894Z,98634.13
2023-04-05T07:42:32.035Z,98633.11
2023-04-05T07:45:35.558Z,98637.52
2023-04-05T07:48:38.568Z,98639.18
2023-04-05T07:51:43.417Z,98637.88
2023-04-05T07:54:46.663Z,98640.05
2023-04-05T07:57:49.774Z,98635.40
2023-04-05T08:00:53.555Z,98636.15
2023-04-05T08:03:59.716Z,98633.15
2023-04-05T08:07:03.151Z,98635.84
2023-04-05T08:10:06.645Z,98633.05
2023-04-05T08:13:09.889Z,98632.70
2023-04-05T08:16:13.178Z,98634.74
2023-04-05T08:19:16.917Z,98632.84
2023-04-05T08:22:21.781Z,98630.82
2023-04-05T08:25:24.867Z,98631.50
2023-04-05T08:28:28.029Z,98637.38
2023-04-05T08:31:31.321Z,98633.85
2023-04-05T08:34:34.453Z,98629.81
2023-04-05T08:37:37.636Z,98625.66
2023-04-05T08:40:44.142Z,98625.70
2023-04-05T08:43:59.051Z,98627.66
2023-04-05T08:47:02.217Z,98628.10
2023-04-05T08:50:05.745Z,98631.15
2023-04-05T08:53:11.904Z,98629.30
2023-04-05T08:56:25.997Z,98622.46
2023-04-05T08:59:29.916Z,98616.91
2023-04-05T09:02:33.917Z,98617.48
2023-04-05T09:05:39.690Z,98618.10
2023-04-05T09:08:43.104Z,98615.95
2023-04-05T09:11:46.413Z,98619.48
2023-04-05T09:14:50.669Z,98623.30
2023-04-05T09:17:55.965Z,98628.77
2023-04-05T09:21:04.858Z,98622.83
2023-04-05T09:24:07.964Z,98614.38
2023-04-05T09:27:18.605Z,98615.17
2023-04-05T09:30:28.146Z,98610.75
2023-04-05T09:33:31.904Z,98616.52
2023-04-05T09:36:35.998Z,98616.95
2023-04-05T09:39:39.278Z,98614.17
2023-04-05T09:42:48.375Z,98613.52
2023-04-05T09:45:52.765Z,98610.46
2023-04-05T09:48:57.159Z,98611.21
2023-04-05T09:52:02.334Z,98602.68
2023-04-05T09:55:09.574Z,98602.68
2023-04-05T09:58:14.305Z,98602.95
2023-04-05T10:01:17.818Z,98597.39
2023-04-05T10:04:22.722Z,98596.06
2023-04-05T10:07:26.400Z,98601.58
2023-04-05T10:10:46.296Z,98601.74
2023-04-05T10:13:54.357Z,98604.11
2023-04-05T10:17:23.715Z,98599.66
2023-04-05T10:20:29.812Z,98598.30
2023-04-05T10:23:44.965Z,98594.52
2023-04-05T10:27:06.568Z,98593.60
2023-04-05T10:30:18.015Z,98587.20
2023-04-05T10:33:31.985Z,98579.55
2023-04-05T10:36:58.358Z,98579.53
2023-04-05T10:40:04.351Z,98578.65
2023-04-05T10:43:16.672Z,98580.94
2023-04-05T10:46:22.869Z,98574.34
2023-04-05T10:49:46.604Z,98576.67
2023-04-05T10:52:51.536Z,98575.27
2023-04-05T10:55:56.064Z,98567.02
2023-04-05T10:59:00.417Z,98563.02
2023-04-05T11:02:04.612Z,98565.06
2023-04-05T11:05:32.591Z,98561.63
2023-04-05T11:08:42.413Z,98562.77
2023-04-05T11:11:50.090Z,98561.85
2023-04-05T11:14:53.199Z,98562.12
2023-04-05T11:18:22.125Z,98555.38
2023-04-05T11:21:26.234Z,98557.52
2023-04-05T11:24:57.992Z,98559.58
2023-04-05T11:28:01.601Z,98561.63
2023-04-05T11:31:23.006Z,98559.90
2023-04-05T11:34:26.503Z,98557.17
2023-04-05T11:38:00.068Z,98554.59
2023-04-05T11:41:20.685Z,98552.70
2023-04-05T11:44:26.619Z,98544.24
2023-04-05T11:47:29.787Z,98547.54
2023-04-05T11:50:33.594Z,98556.68
2023-04-05T11:53:37.882Z,98561.98
2023-04-05T11:56:42.510Z,98556.98
2023-04-05T11:59:45.708Z,98557.40
2023-04-05T12:02:48.869Z,98558.20
2023-04-05T12:05:54.190Z,98558.37
2023-04-05T12:08:57.325Z,98552.70
2023-04-05T12:12:00.644Z,98547.16
2023-04-05T12:15:05.539Z,98551.91
2023-04-05T12:18:15.369Z,98546.13
2023-04-05T12:21:18.623Z,98544.73
2023-04-05T12:24:24.765Z,98545.70
2023-04-05T12:27:28.130Z,98543.30
2023-04-05T12:30:36.607Z,98539.76
2023-04-05T12:33:41.472Z,98539.09
2023-04-05T12:36:46.277Z,98539.23
2023-04-05T12:39:49.464Z,98541.23
2023-04-05T12:42:52.637Z,98539.33
2023-04-05T12:45:56.649Z,98537.11
2023-04-05T12:48:59.797Z,98534.76
2023-04-05T12:52:03.143Z,98534.09
2023-04-05T12:55:15.449Z,98532.18
2023-04-05T12:58:20.702Z,98530.36
2023-04-05T13:01:23.823Z,98522.80
2023-04-05T13:04:27.032Z,98528.71
2023-04-05T13:07:30.525Z,98530.81
2023-04-05T13:10:33.695Z,98532.41
2023-04-05T13:13:36.822Z,98532.11
2023-04-05T13:16:40.031Z,98532.25
2023-04-05T13:19:43.235Z,98528.02
2023-04-05T13:22:47.011Z,98525.33
2023-04-05T13:25:50.262Z,98522.48
2023-04-05T13:28:53.367Z,98522.86
2023-04-05T13:31:56.931Z,98517.42
2023-04-05T13:35:00.053Z,98518.52
2023-04-05T13:38:04.521Z,98522.48
2023-04-05T13:41:08.144Z,98523.19
2023-04-05T13:44:11.256Z,98523.96
2023-04-05T13:47:15.091Z,98520.49
2023-04-05T13:50:18.096Z,98523.38
2023-04-05T13:53:21.184Z,98520.72
2023-04-05T13:56:24.393Z,98522.70
2023-04-05T13:59:27.641Z,98521.64
2023-04-05T14:02:33.270Z,98522.06
2023-04-05T14:05:36.510Z,98523.48
2023-04-05T14:08:39.700Z,98526.38
2023-04-05T14:11:42.918Z,98529.46
2023-04-05T14:14:46.303Z,98531.67
2023-04-05T14:17:49.706Z,98526.63
2023-04-05T14:20:53.285Z,98526.45
2023-04-05T14:23:58.351Z,98529.23
2023-04-05T14:27:02.425Z,98530.55
2023-04-05T14:30:06.405Z,98528.08
2023-04-05T14:33:09.590Z,98525.81
2023-04-05T14:36:12.725Z,98523.11
2023-04-05T14:39:16.063Z,98519.55
2023-04-05T14:42:19.368Z,98526.73
2023-04-05T14:45:27.198Z,98531.81
2023-04-05T14:48:31.963Z,98533.25
2023-04-05T14:51:35.515Z,98536.41
2023-04-05T14:54:38.588Z,98538.70
2023-04-05T14:57:42.137Z,98538.52
2023-04-05T15:00:45.558Z,98537.75
2023-04-05T15:03:52.037Z,98535.20
2023-04-05T15:06:56.289Z,98540.98
2023-04-05T15:09:59.423Z,98542.45
2023-04-05T15:13:02.633Z,98534.85
2023-04-05T15:16:05.971Z,98536.45
2023-04-05T15:19:09.139Z,98534.22
2023-04-05T15:22:12.426Z,98533.64
2023-04-05T15:25:15.852Z,98538.67
2023-04-05T15:28:19.147Z,98536.05
2023-04-05T15:31:22.603Z,98535.73
2023-04-05T15:34:27.352Z,98537.62
2023-04-05T15:37:30.761Z,98539.88
2023-04-05T15:40:34.546Z,98532.55
2023-04-05T15:43:39.496Z,98536.02
2023-04-05T15:46:42.775Z,98535.29
2023-04-05T15:49:47.553Z,98534.83
2023-04-05T15:52:55.589Z,98534.97
2023-04-05T15:55:58.952Z,98537.05
2023-04-05T15:59:02.489Z,98533.31
2023-04-05T16:02:06.161Z,98536.35
2023-04-05T16:05:09.341Z,98529.45
2023-04-05T16:08:12.623Z,98531.11
2023-04-05T16:11:15.853Z,98531.96
2023-04-05T16:14:18.920Z,98528.63
2023-04-05T16:17:22.249Z,98530.47
2023-04-05T16:20:25.999Z,98531.75
2023-04-05T16:23:29.637Z,98532.00
2023-04-05T16:26:33.056Z,98533.67
2023-04-05T16:29:36.179Z,98534.33
2023-04-05T16:32:39.263Z,98532.18
2023-04-05T16:35:42.415Z,98535.80
2023-04-05T16:38:47.472Z,98538.23
2023-04-05T16:41:50.659Z,98539.40
2023-04-05T16:44:53.724Z,98537.32
2023-04-05T16:47:56.756Z,98537.16
2023-04-05T16:50:59.842Z,98538.67
2023-04-05T16:54:03.378Z,98541.52
2023-04-05T16:57:06.445Z,98542.87
2023-04-05T17:00:10.757Z,98542.31
2023-04-05T17:03:13.978Z,98545.66
2023-04-05T17:06:17.664Z,98549.58
2023-04-05T17:09:21.681Z,98551.12
2023-04-05T17:12:24.943Z,98550.79
2023-04-05T17:15:28.247Z,98552.38
2023-04-05T17:18:31.364Z,98559.56
2023-04-05T17:21:35.741Z,98558.61
2023-04-05T17:24:38.939Z,98559.80
2023-04-05T17:27:42.011Z,98563.08
2023-04-05T17:30:45.253Z,98562.71
2023-04-05T17:33:48.880Z,98567.18
2023-04-05T17:36:52.935Z,98570.91
2023-04-05T17:39:56.386Z,98573.14
2023-04-05T17:42:59.449Z,98573.45
2023-04-05T17:46:03.134Z,98573.89
2023-04-05T17:49:06.459Z,98575.82
2023-04-05T17:52:09.769Z,98579.85
2023-04-05T17:55:12.845Z,98583.37
2023-04-05T17:58:15.968Z,98585.80
2023-04-05T18:01:19.341Z,98593.23
2023-04-05T18:04:25.657Z,98594.66
2023-04-05T18:07:28.793Z,98594.46
2023-04-05T18:10:31.897Z,98595.64
2023-04-05T18:13:35.132Z,98600.66
2023-04-05T18:16:38.532Z,98599.65
2023-04-05T18:19:41.817Z,98602.30
2023-04-05T18:22:44.937Z,98604.33
2023-04-05T18:25:48.554Z,98608.75
2023-04-05T18:28:57.768Z,98613.48
2023-04-05T18:32:01.009Z,98611.60
2023-04-05T18:35:04.619Z,98611.14
2023-04-05T18:38:07.875Z,98613.59
2023-04-05T18:41:12.446Z,98616.19
2023-04-05T18:44:16.185Z,98619.09
2023-04-05T18:47:19.199Z,98620.25
2023-04-05T18:50:22.321Z,98619.39
2023-04-05T18:53:25.591Z,98620.18
2023-04-05T18:56:28.872Z,98618.61
2023-04-05T18:59:32.053Z,98617.55
2023-04-05T19:02:35.221Z,98619.30
2023-04-05T19:05:38.514Z,98619.91
2023-04-05T19:08:42.274Z,98620.77
2023-04-05T19:11:45.336Z,98622.45
2023-04-05T19:14:48.416Z,98623.52
2023-04-05T19:17:51.411Z,98622.33
2023-04-05T19:20:59.830Z,98618.69
2023-04-05T19:24:03.061Z,98623.51
2023-04-05T19:27:06.313Z,98622.23
2023-04-05T19:30:09.783Z,98624.09
2023-04-05T19:33:13.448Z,98624.11
2023-04-05T19:36:16.617Z,98621.33
2023-04-05T19:39:25.416Z,98617.99
2023-04-05T19:42:28.503Z,98615.77
2023-04-05T19:45:32.527Z,98618.52
2023-04-05T19:48:35.961Z,98616.14
2023-04-05T19:51:39.241Z,98619.45
2023-04-05T19:54:43.460Z,98617.44
2023-04-05T19:57:47.339Z,98612.48
2023-04-05T20:00:54.923Z,98611.66
2023-04-05T20:03:59.264Z,98613.84
2023-04-05T20:07:03.908Z,98610.91
2023-04-05T20:10:20.873Z,98612.82
2023-04-05T20:13:24.250Z,98611.41
2023-04-05T20:16:33.008Z,98604.86
2023-04-05T20:19:41.562Z,98606.87
2023-04-05T20:22:44.545Z,98604.04
2023-04-05T20:25:48.405Z,98600.20
2023-04-05T20:28:55.318Z,98602.12
2023-04-05T20:31:58.940Z,98600.44
2023-04-05T20:35:02.015Z,98600.58
2023-04-05T20:38:05.370Z,98604.54
2023-04-05T20:41:10.144Z,98603.23
2023-04-05T20:44:13.268Z,98597.64
2023-04-05T20:47:16.390Z,98596.24
2023-04-05T20:50:19.360Z,98598.46
2023-04-05T20:53:22.432Z,98598.64
2023-04-05T20:56:25.770Z,98592.38
2023-04-05T20:59:29.152Z,98597.98
2023-04-05T21:02:32.283Z,98595.30
2023-04-05T21:05:35.613Z,98598.30
2023-04-05T21:08:39.904Z,98598.13
2023-04-05T21:11:42.969Z,98596.50
2023-04-05T21:14:46.008Z,98595.27
2023-04-05T21:17:49.054Z,98596.54
2023-04-05T21:20:53.693Z,98592.09
2023-04-05T21:23:56.712Z,98594.57
2023-04-05T21:26:59.723Z,98598.86
2023-04-05T21:30:03.131Z,98597.86
2023-04-05T21:33:06.672Z,98596.14
2023-04-05T21:36:09.828Z,98595.89
2023-04-05T21:39:12.888Z,98596.73
2023-04-05T21:42:16.041Z,98596.50
2023-04-05T21:45:19.069Z,98593.14
2023-04-05T21:48:24.051Z,98593.02
2023-04-05T21:51:27.078Z,98592.95
2023-04-05T21:54:30.216Z,98590.84
2023-04-05T21:57:36.149Z,98591.73
2023-04-05T22:00:39.341Z,98593.06
2023-04-05T22:03:42.482Z,98590.86
2023-04-05T22:06:45.531Z,98589.11
2023-04-05T22:09:48.582Z,98592.27
2023-04-05T22:12:51.809Z,98592.72
2023-04-05T22:15:54.801Z,98588.27
2023-04-05T22:18:58.004Z,98592.77
2023-04-05T22:22:01.085Z,98594.45
2023-04-05T22:25:04.477Z,98595.58
2023-04-05T22:28:07.466Z,98595.71
2023-04-05T22:31:10.676Z,98601.09
2023-04-05T22:34:13.856Z,98596.52
2023-04-05T22:37:16.916Z,98595.52
2023-04-05T22:40:20.072Z,98598.20
2023-04-05T22:43:24.022Z,98600.44
2023-04-05T22:46:27.077Z,98598.96
2023-04-05T22:49:30.796Z,98595.62
2023-04-05T22:52:33.819Z,98594.77
2023-04-05T22:55:39.750Z,98592.21
2023-04-05T22:58:42.761Z,98595.23
2023-04-05T23:01:45.794Z,98594.18
2023-04-05T23:04:48.845Z,98598.58
2023-04-05T23:07:52.346Z,98592.98
2023-04-05T23:10:55.564Z,98591.40
2023-04-05T23:13:58.655Z,98595.81
2023-04-05T23:17:01.742Z,98592.77
2023-04-05T23:20:06.955Z,98594.80
2023-04-05T23:23:10.379Z,98594.11
2023-04-05T23:26:13.487Z,98598.77
2023-04-05T23:29:18.706Z,98594.48
2023-04-05T23:32:21.869Z,98588.44
2023-04-05T23:35:24.919Z,98592.48
2023-04-05T23:38:27.895Z,98592.30
2023-04-05T23:41:31.391Z,98588.77
2023-04-05T23:44:34.637Z,98589.91
2023-04-05T23:47:38.342Z,98584.11
2023-04-05T23:50:41.472Z,98586.07
2023-04-05T23:53:44.528Z,98584.58
2023-04-05T23:56:48.236Z,98585.95
2023-04-05T23:59:52.283Z,98591.99
